Arley, AL

4:07 AM CDT on September 21, 2014 (GMT -0500)
Upshaw Community | Change Station
CLOSE
Current Station
Personal Weather Station
Location: Addison, AL
Elevation: 869 ft
Nearby Weather Stations

Elev 869 ft 34.26 °N, 87.16 °W | Updated 3 minutes ago

Clear
Clear
60.8 °F
Feels Like 60.8 °F
N
0.0
Wind Variable Wind from SE

Today
High -- | Low -- °F
--% Chance of Precip.
Yesterday
High -- | Low -- °F
Precip. -- in
6:36 AM 6:47 PM
Waning Crescent, 8% visible
Pressure 30.09 in
Visibility 10.0 miles
Clouds Clear
Dew Point 60 °F
Humidity 99%
Rainfall 0.00 in
Snow Depth Not available.
UV 0 out of 12
Pollen 7.90 out of 12
Ozone Good
PM2.5 Moderate
Flu Activity Not available.
METAR K1M4 210856Z AUTO 00000KT 10SM CLR 18/17 A3006 RMK AO2 58005 T01770172 SLP189

More Conditions Fewer Conditions

Pressure 30.09 in
Visibility 10.0 miles
Clouds Clear
Dew Point 60 °F
Humidity 99%
Rainfall 0.00 in
Snow Depth Not available.
UV 0 out of 12
Pollen 7.90 out of 12
Ozone Good
PM2.5 Moderate
Flu Activity Not available.
METAR K1M4 210856Z AUTO 00000KT 10SM CLR 18/17 A3006 RMK AO2 58005 T01770172 SLP189

More Conditions Fewer Conditions

10-Day Weather Forecast

Almanac

Astronomy

Sep. 21, 2014 Rise Set
Actual Time 6:36 AM CDT 6:47 PM CDT
Civil Twilight 6:11 AM CDT 7:12 PM CDT
Nautical Twilight 5:42 AM CDT 7:41 PM CDT
Astronomical Twilight 5:12 AM CDT 8:11 PM CDT
Moon 4:14 AM CDT 5:19 PM CDT
Length of Visible Light 13h 00m
Length of Day
12h 10m
Tomorrow will be 2m 8s shorter.
Waning Crescent, 8% of the Moon is Illuminated
Today
Waning Crescent
Sep 24
New
Oct 1
First Quarter
Oct 8
Full
Oct 15
Last Quarter

Today's Extremes

State Highs State Lows

Community

WunderPhotos

Upload Photos

1,755,100 photos uploaded!

Nearby

Air Quality

  Air Quality AQ Index Pollutant
Yesterday Good
OZONE
Yesterday Good
PM10
Current Moderate
PM2.5
Current Good
OZONE
Sunday Moderate
PM2.5
Sunday Good
OZONE
Monday Good
OZONE
Monday Good
PM2.5

Snow Depth

Station Depth Elevation
No new snow has been reported.

Earthquake Activity

City Distance Mag. Time & Date
No recent earthquake activity has been reported nearby.
Minimum magnitude displayed is 2.5.

Coastal Water Temperatures

Place Temperature
No Stations Reporting

Nearby Weather Stations